createdAt,value
2023-05-12T00:02:24.287Z,97633.41
2023-05-12T00:04:51.789Z,97635.19
2023-05-12T00:07:19.321Z,97634.19
2023-05-12T00:09:46.826Z,97635.03
2023-05-12T00:12:14.382Z,97628.59
2023-05-12T00:14:41.900Z,97632.53
2023-05-12T00:17:10.725Z,97628.88
2023-05-12T00:19:38.163Z,97631.69
2023-05-12T00:22:06.172Z,97629.03
2023-05-12T00:24:33.625Z,97633.94
2023-05-12T00:27:01.065Z,97636.44
2023-05-12T00:29:28.536Z,97633.34
2023-05-12T00:31:56.726Z,97629.81
2023-05-12T00:34:25.595Z,97632.34
2023-05-12T00:36:53.160Z,97623.69
2023-05-12T00:39:20.653Z,97624.69
2023-05-12T00:41:50.037Z,97627.59
2023-05-12T00:44:18.351Z,97627.16
2023-05-12T00:46:45.893Z,97624.72
2023-05-12T00:49:13.777Z,97631.88
2023-05-12T00:51:43.282Z,97629.22
2023-05-12T00:54:10.808Z,97626.94
2023-05-12T00:56:40.076Z,97632.53
2023-05-12T00:59:07.656Z,97624.09
2023-05-12T01:01:36.226Z,97625.28
2023-05-12T01:04:04.504Z,97632.50
2023-05-12T01:06:39.628Z,97630.84
2023-05-12T01:09:09.131Z,97626.72
2023-05-12T01:11:36.571Z,97624.03
2023-05-12T01:14:04.313Z,97620.16
2023-05-12T01:16:36.964Z,97613.72
2023-05-12T01:19:08.129Z,97612.72
2023-05-12T01:21:36.102Z,97611.03
2023-05-12T01:24:09.559Z,97614.34
2023-05-12T01:26:38.779Z,97617.25
2023-05-12T01:29:07.881Z,97603.44
2023-05-12T01:31:35.669Z,97609.44
2023-05-12T01:34:03.152Z,97604.44
2023-05-12T01:36:31.417Z,97607.34
2023-05-12T01:38:58.867Z,97604.91
2023-05-12T01:41:26.444Z,97608.38
2023-05-12T01:43:55.243Z,97602.78
2023-05-12T01:46:22.773Z,97603.47
2023-05-12T01:48:50.386Z,97610.25
2023-05-12T01:51:17.827Z,97610.66
2023-05-12T01:53:45.349Z,97606.13
2023-05-12T01:56:12.807Z,97607.38
2023-05-12T01:58:40.321Z,97606.97
2023-05-12T02:01:09.166Z,97598.31
2023-05-12T02:03:37.827Z,97603.88
2023-05-12T02:06:05.898Z,97602.41
2023-05-12T02:08:33.348Z,97603.03
2023-05-12T02:11:07.178Z,97592.94
2023-05-12T02:13:34.979Z,97593.53
2023-05-12T02:16:02.681Z,97589.38
2023-05-12T02:18:31.590Z,97600.56
2023-05-12T02:20:59.093Z,97597.06
2023-05-12T02:23:26.520Z,97601.41
2023-05-12T02:25:53.981Z,97593.97
2023-05-12T02:28:21.421Z,97598.06
2023-05-12T02:30:50.426Z,97600.16
2023-05-12T02:33:18.800Z,97593.53
2023-05-12T02:35:50.431Z,97600.13
2023-05-12T02:38:17.910Z,97597.25
2023-05-12T02:40:45.387Z,97596.03
2023-05-12T02:43:12.858Z,97600.38
2023-05-12T02:45:41.424Z,97605.50
2023-05-12T02:48:08.931Z,97606.72
2023-05-12T02:50:36.426Z,97601.72
2023-05-12T02:53:05.525Z,97601.13
2023-05-12T02:55:33.947Z,97601.56
2023-05-12T02:58:01.482Z,97599.31
2023-05-12T03:00:28.980Z,97601.16
2023-05-12T03:02:56.553Z,97594.16
2023-05-12T03:05:24.064Z,97587.75
2023-05-12T03:07:51.578Z,97597.66
2023-05-12T03:10:20.799Z,97595.19
2023-05-12T03:12:48.522Z,97596.22
2023-05-12T03:15:16.079Z,97592.47
2023-05-12T03:17:43.642Z,97598.09
2023-05-12T03:20:12.131Z,97593.31
2023-05-12T03:22:39.884Z,97592.50
2023-05-12T03:25:10.303Z,97594.16
2023-05-12T03:27:39.356Z,97590.03
2023-05-12T03:30:07.929Z,97594.97
2023-05-12T03:32:35.270Z,97597.00
2023-05-12T03:35:02.707Z,97598.66
2023-05-12T03:37:30.131Z,97598.47
2023-05-12T03:39:58.370Z,97596.22
2023-05-12T03:42:25.879Z,97598.50
2023-05-12T03:44:54.722Z,97598.09
2023-05-12T03:47:22.244Z,97605.72
2023-05-12T03:49:49.836Z,97585.28
2023-05-12T03:52:17.294Z,97594.72
2023-05-12T03:54:44.792Z,97593.50
2023-05-12T03:57:13.304Z,97597.88
2023-05-12T03:59:41.192Z,97595.81
2023-05-12T04:02:11.741Z,97591.88
2023-05-12T04:04:39.270Z,97595.19
2023-05-12T04:07:06.742Z,97592.72
2023-05-12T04:09:34.270Z,97592.31
2023-05-12T04:12:01.742Z,97592.91
2023-05-12T04:14:41.603Z,97589.59
2023-05-12T04:17:11.716Z,97594.16
2023-05-12T04:19:39.172Z,97595.41
2023-05-12T04:22:06.654Z,97590.84
2023-05-12T04:24:34.148Z,97603.91
2023-05-12T04:27:01.698Z,97607.06
2023-05-12T04:29:29.330Z,97608.38
2023-05-12T04:31:57.166Z,97603.22
2023-05-12T04:34:25.986Z,97611.88
2023-05-12T04:36:53.467Z,97608.50
2023-05-12T04:39:21.215Z,97615.19
2023-05-12T04:41:48.720Z,97619.00
2023-05-12T04:44:16.263Z,97629.31
2023-05-12T04:46:44.187Z,97621.50
2023-05-12T04:49:11.945Z,97625.25
2023-05-12T04:51:42.284Z,97624.03
2023-05-12T04:54:10.590Z,97619.31
2023-05-12T04:56:38.215Z,97613.53
2023-05-12T04:59:06.200Z,97618.09
2023-05-12T05:01:33.826Z,97625.47
2023-05-12T05:04:01.456Z,97624.66
2023-05-12T05:06:29.001Z,97620.75
2023-05-12T05:08:57.804Z,97622.81
2023-05-12T05:11:25.722Z,97618.50
2023-05-12T05:13:53.193Z,97617.56
2023-05-12T05:16:20.733Z,97624.88
2023-05-12T05:18:48.418Z,97629.63
2023-05-12T05:21:16.224Z,97624.50
2023-05-12T05:23:43.805Z,97629.81
2023-05-12T05:26:12.750Z,97622.81
2023-05-12T05:28:40.632Z,97624.28
2023-05-12T05:31:20.636Z,97632.91
2023-05-12T05:33:48.206Z,97633.00
2023-05-12T05:36:16.350Z,97635.31
2023-05-12T05:38:43.922Z,97632.13
2023-05-12T05:41:12.748Z,97631.06
2023-05-12T05:43:40.228Z,97632.72
2023-05-12T05:46:08.627Z,97635.44
2023-05-12T05:48:36.772Z,97645.97
2023-05-12T05:51:05.036Z,97635.63
2023-05-12T05:53:32.614Z,97640.81
2023-05-12T05:56:00.073Z,97642.44
2023-05-12T05:58:28.902Z,97651.97
2023-05-12T06:00:56.393Z,97651.19
2023-05-12T06:03:24.349Z,97639.19
2023-05-12T06:05:51.954Z,97653.66
2023-05-12T06:08:19.442Z,97650.34
2023-05-12T06:10:46.945Z,97652.44
2023-05-12T06:13:14.442Z,97651.63
2023-05-12T06:15:43.538Z,97665.22
2023-05-12T06:18:11.197Z,97666.66
2023-05-12T06:20:38.688Z,97672.88
2023-05-12T06:23:06.680Z,97659.25
2023-05-12T06:25:34.136Z,97659.03
2023-05-12T06:28:01.584Z,97665.44
2023-05-12T06:30:29.079Z,97666.06
2023-05-12T06:32:57.966Z,97668.16
2023-05-12T06:35:25.485Z,97668.31
2023-05-12T06:37:52.919Z,97683.41
2023-05-12T06:40:20.335Z,97681.78
2023-05-12T06:42:47.781Z,97689.63
2023-05-12T06:45:15.791Z,97680.31
2023-05-12T06:47:43.374Z,97682.97
2023-05-12T06:50:12.360Z,97689.78
2023-05-12T06:52:39.934Z,97688.34
2023-05-12T06:55:08.268Z,97685.47
2023-05-12T06:57:35.805Z,97692.50
2023-05-12T07:00:03.322Z,97691.50
2023-05-12T07:02:31.279Z,97685.91
2023-05-12T07:04:58.854Z,97681.38
2023-05-12T07:07:27.706Z,97681.59
2023-05-12T07:09:55.148Z,97679.31
2023-05-12T07:12:22.594Z,97682.19
2023-05-12T07:14:50.039Z,97686.34
2023-05-12T07:17:17.501Z,97684.47
2023-05-12T07:19:44.980Z,97690.25
2023-05-12T07:22:13.120Z,97688.59
2023-05-12T07:24:42.172Z,97694.81
2023-05-12T07:27:09.850Z,97686.97
2023-05-12T07:29:37.637Z,97686.75
2023-05-12T07:32:06.075Z,97691.50
2023-05-12T07:34:33.845Z,97688.81
2023-05-12T07:37:02.342Z,97686.94
2023-05-12T07:39:32.156Z,97689.03
2023-05-12T07:42:00.960Z,97697.06
2023-05-12T07:44:28.507Z,97697.69
2023-05-12T07:46:56.026Z,97696.91
2023-05-12T07:49:24.150Z,97702.47
2023-05-12T07:51:51.923Z,97702.47
2023-05-12T07:54:19.398Z,97702.06
2023-05-12T07:56:46.847Z,97695.44
2023-05-12T07:59:15.722Z,97704.72
2023-05-12T08:01:43.358Z,97706.56
2023-05-12T08:04:11.021Z,97702.47
2023-05-12T08:06:38.571Z,97707.84
2023-05-12T08:09:06.313Z,97716.09
2023-05-12T08:11:33.754Z,97715.28
2023-05-12T08:14:01.305Z,97707.63
2023-05-12T08:16:30.393Z,97707.22
2023-05-12T08:18:58.826Z,97707.84
2023-05-12T08:21:28.502Z,97707.84
2023-05-12T08:23:55.991Z,97710.53
2023-05-12T08:26:24.285Z,97707.00
2023-05-12T08:28:51.742Z,97707.84
2023-05-12T08:31:19.327Z,97719.41
2023-05-12T08:33:51.823Z,97710.13
2023-05-12T08:36:27.021Z,97714.06
2023-05-12T08:38:56.136Z,97711.78
2023-05-12T08:41:32.114Z,97714.88
2023-05-12T08:44:00.968Z,97712.78
2023-05-12T08:46:28.484Z,97717.53
2023-05-12T08:49:01.650Z,97719.22
2023-05-12T08:51:32.502Z,97725.00
2023-05-12T08:54:00.058Z,97720.44
2023-05-12T08:58:58.438Z,97720.44
2023-05-12T09:01:26.930Z,97715.19
2023-05-12T09:03:54.278Z,97717.63
2023-05-12T09:06:23.439Z,97715.31
2023-05-12T09:08:50.913Z,97707.44
2023-05-12T09:11:21.782Z,97708.13
2023-05-12T09:13:55.291Z,97705.03
2023-05-12T09:16:25.276Z,97721.84
2023-05-12T09:18:54.149Z,97727.03
2023-05-12T09:21:23.552Z,97727.88
2023-05-12T09:23:55.408Z,97735.53
2023-05-12T09:26:23.585Z,97739.06
2023-05-12T09:28:51.452Z,97735.13
2023-05-12T09:31:19.853Z,97746.72
2023-05-12T09:33:47.597Z,97747.13
2023-05-12T09:36:18.317Z,97745.91
2023-05-12T09:38:47.199Z,97744.44
2023-05-12T09:41:14.644Z,97745.91
2023-05-12T09:43:48.021Z,97747.75
2023-05-12T09:46:15.572Z,97740.88
2023-05-12T09:48:43.085Z,97734.81
2023-05-12T09:51:11.842Z,97730.44
2023-05-12T09:53:44.291Z,97735.34
2023-05-12T09:56:14.326Z,97736.59
2023-05-12T09:58:44.605Z,97748.72
2023-05-12T10:01:22.589Z,97736.47
2023-05-12T10:03:54.502Z,97736.47
2023-05-12T10:06:26.360Z,97724.28
2023-05-12T10:08:58.936Z,97726.03
2023-05-12T10:11:30.031Z,97724.06
2023-05-12T10:13:58.685Z,97716.97
2023-05-12T10:16:28.859Z,97722.81
2023-05-12T10:18:56.980Z,97715.88
2023-05-12T10:21:25.889Z,97711.91
2023-05-12T10:23:53.425Z,97704.50
2023-05-12T10:26:21.360Z,97708.59
2023-05-12T10:28:50.846Z,97711.59
2023-05-12T10:31:18.945Z,97710.13
2023-05-12T10:33:56.893Z,97705.13
2023-05-12T10:36:24.565Z,97712.38
2023-05-12T10:38:52.280Z,97715.19
2023-05-12T10:41:31.031Z,97709.94
2023-05-12T10:44:00.033Z,97704.59
2023-05-12T10:46:28.610Z,97721.88
2023-05-12T10:48:59.277Z,97714.72
2023-05-12T10:51:28.357Z,97726.53
2023-05-12T10:53:59.247Z,97726.34
2023-05-12T10:56:29.326Z,97736.34
2023-05-12T10:59:18.394Z,97736.34
2023-05-12T11:02:01.283Z,97740.47
2023-05-12T11:04:43.885Z,97744.00
2023-05-12T11:07:14.269Z,97745.44
2023-05-12T11:09:57.032Z,97752.91
2023-05-12T11:12:27.350Z,97752.63
2023-05-12T11:14:56.403Z,97750.34
2023-05-12T11:17:23.893Z,97744.31
2023-05-12T11:19:52.528Z,97741.44
2023-05-12T11:22:22.849Z,97737.06
2023-05-12T11:24:52.370Z,97752.22
2023-05-12T11:27:22.391Z,97740.66
2023-05-12T11:29:58.881Z,97748.75
2023-05-12T11:32:26.548Z,97738.22
2023-05-12T11:34:54.146Z,97744.31
2023-05-12T11:37:22.859Z,97746.00
2023-05-12T11:39:52.730Z,97737.38
2023-05-12T11:42:22.750Z,97752.50
2023-05-12T11:44:51.833Z,97746.03
2023-05-12T11:47:20.773Z,97751.50
2023-05-12T11:49:49.422Z,97746.44
2023-05-12T11:52:17.749Z,97749.44
2023-05-12T11:54:49.977Z,97757.81
2023-05-12T11:57:26.636Z,97751.28
2023-05-12T11:59:57.792Z,97756.22
2023-05-12T12:02:27.306Z,97764.19
2023-05-12T12:04:55.086Z,97767.34
2023-05-12T12:07:30.079Z,97774.63
2023-05-12T12:09:57.556Z,97781.22
2023-05-12T12:12:25.299Z,97786.22
2023-05-12T12:14:52.810Z,97781.44
2023-05-12T12:17:20.320Z,97794.69
2023-05-12T12:19:49.082Z,97783.50
2023-05-12T12:22:16.553Z,97784.50
2023-05-12T12:24:44.124Z,97793.00
2023-05-12T12:27:11.703Z,97801.72
2023-05-12T12:29:39.647Z,97807.03
2023-05-12T12:32:08.262Z,97805.38
2023-05-12T12:34:36.570Z,97800.34
2023-05-12T12:37:06.415Z,97797.25
2023-05-12T12:39:33.858Z,97797.47
2023-05-12T12:42:01.352Z,97790.44
2023-05-12T12:44:29.011Z,97796.44
2023-05-12T12:46:56.595Z,97794.72
2023-05-12T12:49:24.324Z,97799.88
2023-05-12T12:51:52.009Z,97786.88
2023-05-12T12:54:21.938Z,97789.63
2023-05-12T12:56:49.404Z,97801.59
2023-05-12T12:59:16.842Z,97795.72
2023-05-12T13:01:44.428Z,97799.13
2023-05-12T13:04:11.913Z,97801.53
2023-05-12T13:06:39.333Z,97799.41
2023-05-12T13:09:06.863Z,97805.03
2023-05-12T13:11:35.890Z,97791.63
2023-05-12T13:14:04.396Z,97796.03
2023-05-12T13:16:32.291Z,97799.69
2023-05-12T13:18:59.908Z,97798.69
2023-05-12T13:21:27.854Z,97795.97
2023-05-12T13:23:55.308Z,97796.22
2023-05-12T13:26:23.460Z,97787.88
2023-05-12T13:28:54.550Z,97794.53
2023-05-12T13:31:22.082Z,97802.56
2023-05-12T13:33:49.584Z,97797.34
2023-05-12T13:36:17.572Z,97791.13
2023-05-12T13:38:46.629Z,97799.91
2023-05-12T13:41:14.115Z,97806.22
2023-05-12T13:43:41.675Z,97808.03
2023-05-12T13:46:10.624Z,97816.31
2023-05-12T13:48:38.088Z,97814.22
2023-05-12T13:51:08.586Z,97821.31
2023-05-12T13:53:38.483Z,97827.97
2023-05-12T13:56:07.174Z,97821.31
2023-05-12T13:58:36.772Z,97818.34
2023-05-12T14:01:04.565Z,97824.03
2023-05-12T14:03:34.538Z,97818.19
2023-05-12T14:06:02.056Z,97814.81
2023-05-12T14:08:29.581Z,97822.09
2023-05-12T14:10:57.355Z,97815.13
2023-05-12T14:13:26.075Z,97816.56
2023-05-12T14:15:54.226Z,97809.91
2023-05-12T14:18:22.149Z,97820.28
2023-05-12T14:20:51.542Z,97815.91
2023-05-12T14:23:19.050Z,97825.22
2023-05-12T14:25:46.589Z,97831.69
2023-05-12T14:28:16.517Z,97818.38
2023-05-12T14:30:45.166Z,97808.19
2023-05-12T14:33:13.706Z,97814.38
2023-05-12T14:35:41.118Z,97818.16
2023-05-12T14:38:09.877Z,97818.91
2023-05-12T14:40:39.591Z,97825.59
2023-05-12T14:43:07.987Z,97813.59
2023-05-12T14:45:35.496Z,97815.22
2023-05-12T14:48:02.970Z,97823.66
2023-05-12T14:50:30.646Z,97822.38
2023-05-12T14:53:00.405Z,97813.31
2023-05-12T14:55:29.764Z,97820.56
2023-05-12T14:57:57.327Z,97815.06
2023-05-12T15:00:24.957Z,97810.72
2023-05-12T15:02:52.455Z,97798.91
2023-05-12T15:05:20.179Z,97810.31
2023-05-12T15:07:47.779Z,97814.63
2023-05-12T15:10:15.333Z,97820.13
2023-05-12T15:12:44.127Z,97810.75
2023-05-12T15:15:12.170Z,97812.03
2023-05-12T15:17:39.813Z,97807.66
2023-05-12T15:20:09.739Z,97807.47
2023-05-12T15:22:37.463Z,97814.09
2023-05-12T15:25:05.665Z,97801.25
2023-05-12T15:27:33.830Z,97795.72
2023-05-12T15:30:02.825Z,97796.50
2023-05-12T15:32:30.375Z,97804.72
2023-05-12T15:34:58.498Z,97807.81
2023-05-12T15:37:25.968Z,97801.97
2023-05-12T15:39:53.418Z,97806.94
2023-05-12T15:42:26.099Z,97802.91
2023-05-12T15:44:59.944Z,97792.16
2023-05-12T15:47:28.893Z,97801.03
2023-05-12T15:49:56.396Z,97799.19
2023-05-12T15:52:24.749Z,97795.78
2023-05-12T15:54:52.156Z,97793.66
2023-05-12T15:57:19.660Z,97785.75
2023-05-12T15:59:47.439Z,97780.19
2023-05-12T16:02:15.117Z,97779.34
2023-05-12T16:04:44.213Z,97769.88
2023-05-12T16:07:11.787Z,97783.72
2023-05-12T16:09:39.295Z,97782.06
2023-05-12T16:12:09.195Z,97782.72
2023-05-12T16:14:36.875Z,97774.03
2023-05-12T16:17:04.390Z,97782.72
2023-05-12T16:19:31.885Z,97782.69
2023-05-12T16:22:00.692Z,97774.09
2023-05-12T16:24:28.813Z,97769.31
2023-05-12T16:26:56.417Z,97768.22
2023-05-12T16:29:23.880Z,97766.81
2023-05-12T16:31:51.625Z,97767.72
2023-05-12T16:34:19.665Z,97763.16
2023-05-12T16:36:47.138Z,97756.31
2023-05-12T16:39:15.926Z,97761.50
2023-05-12T16:41:43.440Z,97767.91
2023-05-12T16:44:11.217Z,97768.19
2023-05-12T16:46:40.801Z,97772.75
2023-05-12T16:49:09.166Z,97772.28
2023-05-12T16:51:36.666Z,97780.19
2023-05-12T16:54:04.125Z,97777.94
2023-05-12T16:56:32.926Z,97784.34
2023-05-12T16:59:00.945Z,97784.53
2023-05-12T17:01:31.688Z,97787.25
2023-05-12T17:03:59.499Z,97796.72
2023-05-12T17:06:27.083Z,97793.22
2023-05-12T17:08:54.535Z,97788.66
2023-05-12T17:11:22.183Z,97797.59
2023-05-12T17:13:51.057Z,97791.81
2023-05-12T17:16:18.610Z,97787.69
2023-05-12T17:21:16.564Z,97792.44
2023-05-12T17:23:44.111Z,97785.41
2023-05-12T17:26:11.568Z,97788.91
2023-05-12T17:28:39.050Z,97806.16
2023-05-12T17:31:08.903Z,97801.00
2023-05-12T17:33:36.861Z,97805.31
2023-05-12T17:36:12.364Z,97806.59
2023-05-12T17:38:41.754Z,97808.19
2023-05-12T17:41:09.259Z,97816.09
2023-05-12T17:43:36.989Z,97821.88
2023-05-12T17:46:04.691Z,97815.69
2023-05-12T17:48:33.729Z,97819.28
2023-05-12T17:51:01.323Z,97812.41
2023-05-12T17:53:28.831Z,97825.28
2023-05-12T17:55:56.267Z,97821.19
2023-05-12T17:58:23.777Z,97825.09
2023-05-12T18:00:51.596Z,97825.75
2023-05-12T18:03:23.327Z,97834.47
2023-05-12T18:05:54.022Z,97836.53
2023-05-12T18:08:22.084Z,97839.63
2023-05-12T18:10:49.536Z,97838.19
2023-05-12T18:13:17.031Z,97851.75
2023-05-12T18:15:44.621Z,97845.50
2023-05-12T18:18:14.272Z,97850.88
2023-05-12T18:20:42.223Z,97841.38
2023-05-12T18:23:11.067Z,97847.78
2023-05-12T18:25:55.420Z,97854.03
2023-05-12T18:28:22.881Z,97849.47
2023-05-12T18:30:50.468Z,97859.44
2023-05-12T18:33:18.047Z,97862.16
2023-05-12T18:35:45.559Z,97870.22
2023-05-12T18:38:14.844Z,97864.84
2023-05-12T18:40:42.682Z,97871.69
2023-05-12T18:43:10.223Z,97872.13
2023-05-12T18:45:38.010Z,97874.19
2023-05-12T18:48:06.006Z,97872.34
2023-05-12T18:50:33.561Z,97871.31
2023-05-12T18:53:00.993Z,97878.50
2023-05-12T18:55:29.904Z,97885.69
2023-05-12T18:57:57.348Z,97893.56
2023-05-12T19:00:27.600Z,97885.50
2023-05-12T19:02:55.150Z,97881.59
2023-05-12T19:05:22.985Z,97882.25
2023-05-12T19:07:50.752Z,97889.88
2023-05-12T19:10:18.461Z,97894.03
2023-05-12T19:12:48.008Z,97880.13
2023-05-12T19:15:16.224Z,97888.81
2023-05-12T19:17:43.777Z,97898.25
2023-05-12T19:20:11.808Z,97894.06
2023-05-12T19:22:39.326Z,97890.00
2023-05-12T19:25:07.602Z,97896.41
2023-05-12T19:27:35.294Z,97899.44
2023-05-12T19:30:05.151Z,97893.09
2023-05-12T19:32:33.143Z,97898.66
2023-05-12T19:35:01.163Z,97899.28
2023-05-12T19:37:29.764Z,97905.47
2023-05-12T19:40:00.517Z,97902.41
2023-05-12T19:42:28.400Z,97905.47
2023-05-12T19:44:55.917Z,97905.81
2023-05-12T19:47:26.261Z,97910.41
2023-05-12T19:49:54.905Z,97909.53
2023-05-12T19:52:24.409Z,97903.72
2023-05-12T19:54:52.145Z,97910.22
2023-05-12T19:57:19.911Z,97912.22
2023-05-12T19:59:47.410Z,97915.41
2023-05-12T20:02:16.926Z,97912.84
2023-05-12T20:04:45.916Z,97915.28
2023-05-12T20:07:13.454Z,97906.56
2023-05-12T20:09:40.911Z,97912.25
2023-05-12T20:12:09.356Z,97906.56
2023-05-12T20:14:38.262Z,97902.19
2023-05-12T20:17:07.461Z,97911.69
2023-05-12T20:19:35.068Z,97916.47
2023-05-12T20:22:04.200Z,97911.69
2023-05-12T20:24:31.778Z,97915.78
2023-05-12T20:26:59.272Z,97920.72
2023-05-12T20:29:27.496Z,97931.78
2023-05-12T20:31:55.185Z,97918.53
2023-05-12T20:34:22.861Z,97927.41
2023-05-12T20:36:50.554Z,97933.69
2023-05-12T20:39:19.704Z,97920.16
2023-05-12T20:41:47.377Z,97924.81
2023-05-12T20:44:14.900Z,97919.81
2023-05-12T20:46:42.458Z,97921.59
2023-05-12T20:49:09.926Z,97915.69
2023-05-12T20:51:37.372Z,97916.94
2023-05-12T20:54:05.421Z,97918.97
2023-05-12T20:56:34.283Z,97927.59
2023-05-12T20:59:01.893Z,97924.28
2023-05-12T21:01:29.481Z,97911.06
2023-05-12T21:03:57.098Z,97924.00
2023-05-12T21:06:24.666Z,97907.84
2023-05-12T21:08:52.118Z,97907.59
2023-05-12T21:11:19.958Z,97904.66
2023-05-12T21:13:49.009Z,97902.53
2023-05-12T21:16:16.869Z,97911.50
2023-05-12T21:18:44.466Z,97914.38
2023-05-12T21:21:12.174Z,97912.94
2023-05-12T21:23:40.421Z,97922.22
2023-05-12T21:26:10.175Z,97922.09
2023-05-12T21:28:37.903Z,97918.75
2023-05-12T21:31:06.869Z,97917.69
2023-05-12T21:33:34.382Z,97910.09
2023-05-12T21:36:01.852Z,97910.59
2023-05-12T21:38:31.546Z,97918.41
2023-05-12T21:40:59.023Z,97908.88
2023-05-12T21:43:26.532Z,97913.66
2023-05-12T21:45:54.009Z,97915.50
2023-05-12T21:48:22.893Z,97910.13
2023-05-12T21:50:58.829Z,97912.63
2023-05-12T21:53:26.337Z,97912.72
2023-05-12T21:55:53.829Z,97913.03
2023-05-12T21:58:23.317Z,97908.88
2023-05-12T22:00:51.388Z,97921.97
2023-05-12T22:03:20.443Z,97921.59
2023-05-12T22:05:49.856Z,97926.03
2023-05-12T22:08:17.405Z,97927.81
2023-05-12T22:10:45.492Z,97927.31
2023-05-12T22:13:12.980Z,97923.69
2023-05-12T22:15:40.482Z,97927.56
2023-05-12T22:18:08.030Z,97926.88
2023-05-12T22:20:35.760Z,97927.38
2023-05-12T22:23:05.285Z,97934.31
2023-05-12T22:25:32.791Z,97926.41
2023-05-12T22:28:00.335Z,97929.28
2023-05-12T22:30:27.980Z,97923.72
2023-05-12T22:32:55.462Z,97921.25
2023-05-12T22:35:23.100Z,97923.28
2023-05-12T22:37:50.659Z,97917.19
2023-05-12T22:40:21.365Z,97923.25
2023-05-12T22:42:48.937Z,97915.22
2023-05-12T22:45:16.391Z,97913.53
2023-05-12T22:47:43.902Z,97917.13
2023-05-12T22:50:12.096Z,97914.38
2023-05-12T22:52:39.657Z,97928.16
2023-05-12T22:55:07.946Z,97923.72
2023-05-12T22:57:38.390Z,97920.13
2023-05-12T23:00:07.118Z,97925.78
2023-05-12T23:02:34.634Z,97927.59
2023-05-12T23:05:03.894Z,97920.97
2023-05-12T23:07:31.544Z,97927.22
2023-05-12T23:09:59.076Z,97925.94
2023-05-12T23:12:26.893Z,97926.88
2023-05-12T23:14:55.806Z,97922.06
2023-05-12T23:17:23.414Z,97916.91
2023-05-12T23:19:52.082Z,97914.88
2023-05-12T23:22:19.568Z,97915.88
2023-05-12T23:24:47.008Z,97919.34
2023-05-12T23:27:14.508Z,97919.69
2023-05-12T23:29:41.999Z,97912.03
2023-05-12T23:32:11.323Z,97904.00
2023-05-12T23:34:40.212Z,97911.94
2023-05-12T23:37:07.754Z,97914.06
2023-05-12T23:39:35.351Z,97909.63
2023-05-12T23:42:03.692Z,97905.44
2023-05-12T23:44:31.127Z,97897.31
2023-05-12T23:46:58.674Z,97906.22
2023-05-12T23:49:27.513Z,97906.75
2023-05-12T23:51:55.000Z,97904.81
2023-05-12T23:54:22.455Z,97900.75
2023-05-12T23:56:49.901Z,97902.03
2023-05-12T23:59:17.655Z,97899.00
